TAP1272 LPPT-LOWW
Flight info
| Callsign | TAP1272 |
|---|---|
| Flight time | 3h 11m |
| Altitude | 34000 |
| Route | ORVED DCT UREDI N870 BRITO/N0444F360 N870 PISUS/N0430F300 N870 PONEN/N0443F360 DCT SEROX DCT VILAR DCT KARES DCT BISES DCT BCN DCT SALON DCT AGENA DCT BODEQ DCT LUMAS DCT SOSUR DCT SECON DCT ODIXU DCT ADITA DCT RAPED DCT PIGOS DCT EKSID DCT NOSTA DCT EGHIN/N0436F350 DCT ARALD DCT ABTAN ABTAN2W |
| Aircraft | A321/M-SDE3FGHIRWY/LB1 |
Departure
| Time | 2026-05-06 16:56 |
|---|---|
| Airport | Lisbon Humberto Delgado Airport (LPPT) |
Arrival
| Time | 2026-05-06 20:07 |
|---|---|
| Airport | Vienna International Airport (LOWW) |
| Time | Latitude | Longitude | Altitude | Speed | Heading |
|---|---|---|---|---|---|
| 2026-05-06 16:25 | 38.77980 | -9.12955 | 327 ft | 0 kts | 303° |
| 2026-05-06 16:31 | 38.77980 | -9.12954 | 327 ft | 0 kts | 303° |
| 2026-05-06 16:32 | 38.77979 | -9.12954 | 327 ft | 0 kts | 303° |
| 2026-05-06 16:40 | 38.77979 | -9.12953 | 331 ft | 0 kts | 303° |
| 2026-05-06 16:46 | 38.77978 | -9.12951 | 331 ft | 6 kts | 303° |
| 2026-05-06 16:47 | 38.77963 | -9.12924 | 330 ft | 9 kts | 298° |
| 2026-05-06 16:47 | 38.77956 | -9.12893 | 331 ft | 10 kts | 259° |
| 2026-05-06 16:47 | 38.77968 | -9.12865 | 328 ft | 8 kts | 215° |
| 2026-05-06 16:47 | 38.77975 | -9.12859 | 326 ft | 0 kts | 213° |
| 2026-05-06 16:50 | 38.77952 | -9.12878 | 327 ft | 6 kts | 212° |
| 2026-05-06 16:51 | 38.77892 | -9.12928 | 329 ft | 14 kts | 212° |
| 2026-05-06 16:51 | 38.77812 | -9.12996 | 329 ft | 14 kts | 219° |
| 2026-05-06 16:51 | 38.77770 | -9.13091 | 333 ft | 9 kts | 252° |
| 2026-05-06 16:51 | 38.77751 | -9.13193 | 335 ft | 15 kts | 258° |
| 2026-05-06 16:52 | 38.77713 | -9.13342 | 338 ft | 16 kts | 229° |
| 2026-05-06 16:52 | 38.77625 | -9.13403 | 347 ft | 15 kts | 203° |
| 2026-05-06 16:52 | 38.77503 | -9.13479 | 349 ft | 22 kts | 217° |
| 2026-05-06 16:52 | 38.77379 | -9.13521 | 349 ft | 18 kts | 170° |
| 2026-05-06 16:53 | 38.77286 | -9.13574 | 355 ft | 15 kts | 251° |
| 2026-05-06 16:53 | 38.77262 | -9.13701 | 360 ft | 17 kts | 257° |
| 2026-05-06 16:53 | 38.77209 | -9.13850 | 354 ft | 21 kts | 213° |
| 2026-05-06 16:53 | 38.77077 | -9.13928 | 354 ft | 21 kts | 202° |
| 2026-05-06 16:54 | 38.76946 | -9.13998 | 350 ft | 21 kts | 202° |
| 2026-05-06 16:54 | 38.76808 | -9.14072 | 348 ft | 22 kts | 203° |
| 2026-05-06 16:54 | 38.76690 | -9.14135 | 351 ft | 16 kts | 202° |
| 2026-05-06 16:54 | 38.76609 | -9.14184 | 340 ft | 12 kts | 220° |
| 2026-05-06 16:55 | 38.76608 | -9.14284 | 335 ft | 13 kts | 295° |
| 2026-05-06 16:55 | 38.76659 | -9.14367 | 335 ft | 10 kts | 344° |
| 2026-05-06 16:55 | 38.76722 | -9.14347 | 337 ft | 12 kts | 20° |
| 2026-05-06 16:55 | 38.76978 | -9.14214 | 349 ft | 73 kts | 21° |
| 2026-05-06 16:56 | 38.77627 | -9.13868 | 367 ft | 127 kts | 22° |
| 2026-05-06 16:56 | 38.78585 | -9.13354 | 365 ft | 170 kts | 19° |
| 2026-05-06 16:56 | 38.79702 | -9.12748 | 846 ft | 174 kts | 15° |
| 2026-05-06 16:56 | 38.80805 | -9.12112 | 1517 ft | 171 kts | 14° |
| 2026-05-06 16:57 | 38.81872 | -9.11443 | 2112 ft | 176 kts | 26° |
| 2026-05-06 16:57 | 38.82987 | -9.10606 | 2310 ft | 195 kts | 25° |
| 2026-05-06 16:57 | 38.84201 | -9.09683 | 2418 ft | 216 kts | 27° |
| 2026-05-06 16:57 | 38.85570 | -9.08636 | 2627 ft | 240 kts | 26° |
| 2026-05-06 16:58 | 38.87024 | -9.07480 | 3180 ft | 252 kts | 34° |
| 2026-05-06 16:58 | 38.88169 | -9.05733 | 3865 ft | 262 kts | 60° |
| 2026-05-06 16:58 | 38.88990 | -9.03624 | 4618 ft | 265 kts | 62° |
| 2026-05-06 16:58 | 38.89804 | -9.01487 | 5369 ft | 267 kts | 63° |
| 2026-05-06 16:59 | 38.90627 | -8.99326 | 6105 ft | 270 kts | 63° |
| 2026-05-06 16:59 | 38.91445 | -8.97179 | 6785 ft | 273 kts | 64° |
| 2026-05-06 16:59 | 38.92288 | -8.94973 | 7450 ft | 277 kts | 64° |
| 2026-05-06 16:59 | 38.93142 | -8.92733 | 8096 ft | 281 kts | 64° |
| 2026-05-06 17:00 | 38.94009 | -8.90459 | 8737 ft | 285 kts | 63° |
| 2026-05-06 17:00 | 38.94888 | -8.88155 | 9376 ft | 289 kts | 64° |
| 2026-05-06 17:00 | 38.95777 | -8.85820 | 9992 ft | 293 kts | 64° |
| 2026-05-06 17:00 | 38.96685 | -8.83437 | 10233 ft | 311 kts | 64° |
| 2026-05-06 17:01 | 38.97668 | -8.80852 | 10366 ft | 331 kts | 64° |
| 2026-05-06 17:01 | 38.98704 | -8.78126 | 10585 ft | 346 kts | 64° |
| 2026-05-06 17:01 | 38.99773 | -8.75314 | 11057 ft | 352 kts | 64° |
| 2026-05-06 17:01 | 39.00855 | -8.72471 | 11596 ft | 357 kts | 64° |
| 2026-05-06 17:02 | 39.01951 | -8.69583 | 12101 ft | 362 kts | 64° |
| 2026-05-06 17:02 | 39.03063 | -8.66649 | 12670 ft | 365 kts | 64° |
| 2026-05-06 17:02 | 39.04186 | -8.63679 | 13158 ft | 371 kts | 64° |
| 2026-05-06 17:02 | 39.05323 | -8.60674 | 13714 ft | 374 kts | 64° |
| 2026-05-06 17:03 | 39.06452 | -8.57685 | 14190 ft | 379 kts | 64° |
| 2026-05-06 17:03 | 39.07610 | -8.54615 | 14682 ft | 382 kts | 64° |
| 2026-05-06 17:03 | 39.08776 | -8.51519 | 15214 ft | 384 kts | 65° |
| 2026-05-06 17:03 | 39.09945 | -8.48409 | 15673 ft | 387 kts | 65° |
| 2026-05-06 17:04 | 39.11126 | -8.45275 | 16175 ft | 389 kts | 65° |
| 2026-05-06 17:04 | 39.12300 | -8.42158 | 16624 ft | 392 kts | 65° |
| 2026-05-06 17:04 | 39.13495 | -8.38981 | 17135 ft | 394 kts | 65° |
| 2026-05-06 17:04 | 39.14698 | -8.35783 | 17590 ft | 398 kts | 65° |
| 2026-05-06 17:05 | 39.15906 | -8.32565 | 18061 ft | 399 kts | 65° |
| 2026-05-06 17:05 | 39.17115 | -8.29329 | 18495 ft | 401 kts | 65° |
| 2026-05-06 17:05 | 39.18331 | -8.26071 | 18886 ft | 404 kts | 65° |
| 2026-05-06 17:05 | 39.19554 | -8.22799 | 19266 ft | 406 kts | 65° |
| 2026-05-06 17:06 | 39.20771 | -8.19548 | 19625 ft | 408 kts | 65° |
| 2026-05-06 17:06 | 39.22009 | -8.16231 | 19971 ft | 410 kts | 65° |
| 2026-05-06 17:06 | 39.23252 | -8.12893 | 20322 ft | 413 kts | 65° |
| 2026-05-06 17:06 | 39.24498 | -8.09543 | 20669 ft | 415 kts | 65° |
| 2026-05-06 17:07 | 39.25751 | -8.06172 | 21012 ft | 417 kts | 65° |
| 2026-05-06 17:07 | 39.26989 | -8.02827 | 21347 ft | 419 kts | 65° |
| 2026-05-06 17:07 | 39.28251 | -7.99418 | 21689 ft | 421 kts | 65° |
| 2026-05-06 17:07 | 39.29520 | -7.95989 | 22027 ft | 424 kts | 65° |
| 2026-05-06 17:08 | 39.30798 | -7.92538 | 22371 ft | 426 kts | 65° |
| 2026-05-06 17:08 | 39.32076 | -7.89081 | 22750 ft | 427 kts | 65° |
| 2026-05-06 17:08 | 39.33360 | -7.85605 | 23119 ft | 429 kts | 65° |
| 2026-05-06 17:08 | 39.34649 | -7.82110 | 23463 ft | 431 kts | 65° |
| 2026-05-06 17:09 | 39.35942 | -7.78599 | 23760 ft | 434 kts | 65° |
| 2026-05-06 17:09 | 39.37240 | -7.75073 | 23865 ft | 435 kts | 65° |
| 2026-05-06 17:09 | 39.38537 | -7.71539 | 23889 ft | 435 kts | 65° |
| 2026-05-06 17:09 | 39.39815 | -7.68048 | 23887 ft | 435 kts | 65° |
| 2026-05-06 17:10 | 39.41110 | -7.64513 | 23888 ft | 434 kts | 65° |
| 2026-05-06 17:10 | 39.42405 | -7.60981 | 23890 ft | 434 kts | 65° |
| 2026-05-06 17:10 | 39.43699 | -7.57441 | 23879 ft | 435 kts | 65° |
| 2026-05-06 17:10 | 39.44994 | -7.53894 | 23882 ft | 435 kts | 65° |
| 2026-05-06 17:11 | 39.46291 | -7.50340 | 23880 ft | 435 kts | 65° |
| 2026-05-06 17:11 | 39.47582 | -7.46796 | 23882 ft | 435 kts | 65° |
| 2026-05-06 17:11 | 39.48852 | -7.43299 | 23881 ft | 435 kts | 65° |
| 2026-05-06 17:11 | 39.50138 | -7.39750 | 23974 ft | 437 kts | 65° |
| 2026-05-06 17:12 | 39.51433 | -7.36172 | 24282 ft | 439 kts | 65° |
| 2026-05-06 17:12 | 39.52732 | -7.32578 | 24579 ft | 441 kts | 65° |
| 2026-05-06 17:12 | 39.53595 | -7.30192 | 24769 ft | 442 kts | 65° |
| 2026-05-06 17:12 | 39.54906 | -7.26570 | 25049 ft | 444 kts | 65° |
| 2026-05-06 17:13 | 39.56221 | -7.22935 | 25342 ft | 447 kts | 65° |
| 2026-05-06 17:13 | 39.57543 | -7.19273 | 25604 ft | 449 kts | 65° |
| 2026-05-06 17:13 | 39.58868 | -7.15600 | 25898 ft | 451 kts | 65° |
| 2026-05-06 17:13 | 39.60200 | -7.11902 | 26201 ft | 452 kts | 65° |
| 2026-05-06 17:14 | 39.61533 | -7.08196 | 26476 ft | 454 kts | 65° |
| 2026-05-06 17:14 | 39.62872 | -7.04478 | 26744 ft | 456 kts | 65° |
| 2026-05-06 17:14 | 39.64217 | -7.00738 | 27004 ft | 458 kts | 65° |
| 2026-05-06 17:14 | 39.65551 | -6.97021 | 27260 ft | 460 kts | 65° |
| 2026-05-06 17:15 | 39.66903 | -6.93238 | 27516 ft | 462 kts | 65° |
| 2026-05-06 17:15 | 39.68258 | -6.89437 | 27771 ft | 464 kts | 66° |
| 2026-05-06 17:15 | 39.69618 | -6.85614 | 28028 ft | 467 kts | 66° |
| 2026-05-06 17:15 | 39.70980 | -6.81774 | 28268 ft | 468 kts | 65° |
| 2026-05-06 17:16 | 39.72347 | -6.77913 | 28531 ft | 470 kts | 66° |
| 2026-05-06 17:16 | 39.73702 | -6.74090 | 28771 ft | 472 kts | 65° |
| 2026-05-06 17:16 | 39.75082 | -6.70200 | 29005 ft | 474 kts | 65° |
| 2026-05-06 17:16 | 39.76465 | -6.66306 | 29219 ft | 476 kts | 65° |
| 2026-05-06 17:17 | 39.77858 | -6.62379 | 29436 ft | 477 kts | 65° |
| 2026-05-06 17:17 | 39.79249 | -6.58449 | 29652 ft | 479 kts | 66° |
| 2026-05-06 17:17 | 39.80643 | -6.54502 | 29845 ft | 481 kts | 66° |
| 2026-05-06 17:17 | 39.82039 | -6.50543 | 30009 ft | 482 kts | 66° |
| 2026-05-06 17:18 | 39.83425 | -6.46610 | 30165 ft | 483 kts | 66° |
| 2026-05-06 17:18 | 39.84827 | -6.42620 | 30347 ft | 484 kts | 65° |
| 2026-05-06 17:18 | 39.86226 | -6.38629 | 30586 ft | 483 kts | 66° |
| 2026-05-06 17:18 | 39.87596 | -6.34636 | 30829 ft | 482 kts | 66° |
| 2026-05-06 17:19 | 39.88936 | -6.30633 | 31045 ft | 482 kts | 66° |
| 2026-05-06 17:19 | 39.90258 | -6.26619 | 31277 ft | 482 kts | 67° |
| 2026-05-06 17:19 | 39.91576 | -6.22601 | 31489 ft | 482 kts | 66° |
| 2026-05-06 17:19 | 39.92894 | -6.18584 | 31705 ft | 482 kts | 66° |
| 2026-05-06 17:20 | 39.94198 | -6.14619 | 31916 ft | 482 kts | 66° |
| 2026-05-06 17:20 | 39.95526 | -6.10599 | 32120 ft | 482 kts | 66° |
| 2026-05-06 17:20 | 39.96855 | -6.06584 | 32351 ft | 481 kts | 66° |
| 2026-05-06 17:20 | 39.98181 | -6.02567 | 32576 ft | 481 kts | 66° |
| 2026-05-06 17:21 | 39.99504 | -5.98553 | 32789 ft | 481 kts | 66° |
| 2026-05-06 17:21 | 40.00824 | -5.94540 | 33013 ft | 481 kts | 66° |
| 2026-05-06 17:21 | 40.02146 | -5.90530 | 33221 ft | 480 kts | 66° |
| 2026-05-06 17:21 | 40.03466 | -5.86527 | 33435 ft | 480 kts | 66° |
| 2026-05-06 17:22 | 40.04784 | -5.82522 | 33648 ft | 480 kts | 66° |
| 2026-05-06 17:22 | 40.06083 | -5.78559 | 33871 ft | 480 kts | 66° |
| 2026-05-06 17:22 | 40.07391 | -5.74554 | 34037 ft | 480 kts | 66° |
| 2026-05-06 17:22 | 40.08700 | -5.70540 | 34193 ft | 480 kts | 66° |
| 2026-05-06 17:23 | 40.10007 | -5.66530 | 34362 ft | 479 kts | 66° |
| 2026-05-06 17:23 | 40.11313 | -5.62515 | 34534 ft | 479 kts | 66° |
| 2026-05-06 17:23 | 40.12616 | -5.58503 | 34715 ft | 479 kts | 66° |
| 2026-05-06 17:23 | 40.13904 | -5.54535 | 34880 ft | 479 kts | 66° |
| 2026-05-06 17:24 | 40.15220 | -5.50479 | 35050 ft | 478 kts | 66° |
| 2026-05-06 17:24 | 40.16498 | -5.46530 | 35201 ft | 478 kts | 66° |
| 2026-05-06 17:24 | 40.17791 | -5.42525 | 35346 ft | 478 kts | 66° |
| 2026-05-06 17:24 | 40.19087 | -5.38504 | 35499 ft | 478 kts | 66° |
| 2026-05-06 17:25 | 40.20379 | -5.34496 | 35648 ft | 478 kts | 66° |
| 2026-05-06 17:25 | 40.21673 | -5.30478 | 35809 ft | 478 kts | 66° |
| 2026-05-06 17:25 | 40.22962 | -5.26468 | 35892 ft | 478 kts | 67° |
| 2026-05-06 17:26 | 40.25535 | -5.18437 | 35907 ft | 477 kts | 67° |
| 2026-05-06 17:26 | 40.28097 | -5.10426 | 35910 ft | 477 kts | 67° |
| 2026-05-06 17:27 | 40.30647 | -5.02438 | 35910 ft | 477 kts | 67° |
| 2026-05-06 17:27 | 40.33196 | -4.94411 | 35901 ft | 477 kts | 67° |
| 2026-05-06 17:28 | 40.35743 | -4.86369 | 35901 ft | 478 kts | 67° |
| 2026-05-06 17:28 | 40.38291 | -4.78307 | 35925 ft | 478 kts | 67° |
| 2026-05-06 17:29 | 40.40814 | -4.70283 | 35928 ft | 478 kts | 67° |
| 2026-05-06 17:29 | 40.43350 | -4.62197 | 35931 ft | 478 kts | 67° |
| 2026-05-06 17:30 | 40.45883 | -4.54126 | 35932 ft | 478 kts | 67° |
| 2026-05-06 17:30 | 40.48397 | -4.46083 | 35932 ft | 478 kts | 68° |
| 2026-05-06 17:31 | 40.50907 | -4.37990 | 35932 ft | 478 kts | 68° |
| 2026-05-06 17:31 | 40.53418 | -4.29889 | 35929 ft | 478 kts | 68° |
| 2026-05-06 17:32 | 40.55919 | -4.21821 | 35938 ft | 478 kts | 68° |
| 2026-05-06 17:32 | 40.58375 | -4.13694 | 35947 ft | 478 kts | 70° |
| 2026-05-06 17:33 | 40.60400 | -4.05368 | 35950 ft | 478 kts | 74° |
| 2026-05-06 17:33 | 40.62195 | -3.96933 | 35957 ft | 478 kts | 75° |
| 2026-05-06 17:34 | 40.64043 | -3.88513 | 35961 ft | 478 kts | 73° |
| 2026-05-06 17:34 | 40.65971 | -3.80188 | 35958 ft | 478 kts | 73° |
| 2026-05-06 17:35 | 40.67925 | -3.71809 | 35930 ft | 478 kts | 73° |
| 2026-05-06 17:35 | 40.69857 | -3.63409 | 35929 ft | 478 kts | 73° |
| 2026-05-06 17:36 | 40.72708 | -3.50795 | 35926 ft | 478 kts | 73° |
| 2026-05-06 17:36 | 40.74614 | -3.42384 | 35922 ft | 479 kts | 73° |
| 2026-05-06 17:37 | 40.76508 | -3.33987 | 35920 ft | 479 kts | 73° |
| 2026-05-06 17:37 | 40.78409 | -3.25523 | 35924 ft | 480 kts | 74° |
| 2026-05-06 17:38 | 40.80289 | -3.17097 | 35929 ft | 481 kts | 74° |
| 2026-05-06 17:38 | 40.82175 | -3.08617 | 35934 ft | 481 kts | 74° |
| 2026-05-06 17:39 | 40.84054 | -3.00139 | 35918 ft | 482 kts | 74° |
| 2026-05-06 17:39 | 40.85933 | -2.91643 | 35917 ft | 482 kts | 74° |
| 2026-05-06 17:40 | 40.87800 | -2.83161 | 35940 ft | 483 kts | 74° |
| 2026-05-06 17:40 | 40.89673 | -2.74630 | 35944 ft | 482 kts | 74° |
| 2026-05-06 17:41 | 40.91537 | -2.66106 | 35939 ft | 482 kts | 74° |
| 2026-05-06 17:41 | 40.93391 | -2.57576 | 35933 ft | 482 kts | 74° |
| 2026-05-06 17:42 | 40.95227 | -2.49086 | 35932 ft | 482 kts | 74° |
| 2026-05-06 17:42 | 40.97072 | -2.40539 | 35934 ft | 483 kts | 74° |
| 2026-05-06 17:43 | 40.98913 | -2.31985 | 35938 ft | 483 kts | 74° |
| 2026-05-06 17:43 | 41.00742 | -2.23463 | 35927 ft | 483 kts | 74° |
| 2026-05-06 17:44 | 41.02576 | -2.14881 | 35929 ft | 484 kts | 75° |
| 2026-05-06 17:44 | 41.04406 | -2.06269 | 35936 ft | 485 kts | 75° |
| 2026-05-06 17:45 | 41.06214 | -1.97714 | 35943 ft | 485 kts | 75° |
| 2026-05-06 17:45 | 41.08036 | -1.89097 | 35946 ft | 486 kts | 75° |
| 2026-05-06 17:46 | 41.09851 | -1.80455 | 35944 ft | 486 kts | 75° |
| 2026-05-06 17:46 | 41.11657 | -1.71814 | 35941 ft | 486 kts | 75° |
| 2026-05-06 17:47 | 41.13459 | -1.63145 | 35960 ft | 486 kts | 75° |
| 2026-05-06 17:47 | 41.15257 | -1.54473 | 35958 ft | 486 kts | 75° |
| 2026-05-06 17:48 | 41.17033 | -1.45868 | 35959 ft | 487 kts | 75° |
| 2026-05-06 17:48 | 41.18812 | -1.37188 | 35954 ft | 487 kts | 75° |
| 2026-05-06 17:49 | 41.20587 | -1.28504 | 35957 ft | 487 kts | 75° |
| 2026-05-06 17:49 | 41.22365 | -1.19803 | 35959 ft | 487 kts | 75° |
| 2026-05-06 17:50 | 41.24144 | -1.11098 | 35944 ft | 487 kts | 75° |
| 2026-05-06 17:50 | 41.25899 | -1.02443 | 35935 ft | 488 kts | 75° |
| 2026-05-06 17:51 | 41.27654 | -0.93719 | 35934 ft | 488 kts | 76° |
| 2026-05-06 17:51 | 41.29394 | -0.84983 | 35928 ft | 488 kts | 76° |
| 2026-05-06 17:52 | 41.31117 | -0.76292 | 35924 ft | 488 kts | 76° |
| 2026-05-06 17:52 | 41.32867 | -0.67506 | 35917 ft | 490 kts | 76° |
| 2026-05-06 17:53 | 41.34594 | -0.58777 | 35914 ft | 491 kts | 77° |
| 2026-05-06 17:53 | 41.35369 | -0.49798 | 35935 ft | 487 kts | 93° |
| 2026-05-06 17:54 | 41.35288 | -0.40781 | 35928 ft | 487 kts | 92° |
| 2026-05-06 17:54 | 41.35221 | -0.31743 | 35927 ft | 487 kts | 92° |
| 2026-05-06 17:55 | 41.35149 | -0.22777 | 35924 ft | 487 kts | 92° |
| 2026-05-06 17:55 | 41.35066 | -0.13738 | 35923 ft | 487 kts | 92° |
| 2026-05-06 17:56 | 41.34990 | -0.06238 | 35924 ft | 487 kts | 93° |
| 2026-05-06 17:56 | 41.34890 | 0.02796 | 35917 ft | 487 kts | 93° |
| 2026-05-06 17:57 | 41.34790 | 0.11828 | 35907 ft | 488 kts | 93° |
| 2026-05-06 17:57 | 41.34690 | 0.20879 | 35887 ft | 489 kts | 93° |
| 2026-05-06 17:58 | 41.34575 | 0.29885 | 35894 ft | 490 kts | 93° |
| 2026-05-06 17:58 | 41.34442 | 0.38978 | 35892 ft | 491 kts | 94° |
| 2026-05-06 17:59 | 41.34303 | 0.48060 | 35891 ft | 492 kts | 94° |
| 2026-05-06 17:59 | 41.34164 | 0.57186 | 35895 ft | 492 kts | 94° |
| 2026-05-06 18:00 | 41.34020 | 0.66303 | 35898 ft | 493 kts | 94° |
| 2026-05-06 18:00 | 41.33868 | 0.75375 | 35901 ft | 493 kts | 94° |
| 2026-05-06 18:01 | 41.33703 | 0.84515 | 35898 ft | 493 kts | 94° |
| 2026-05-06 18:01 | 41.33529 | 0.93668 | 35904 ft | 494 kts | 94° |
| 2026-05-06 18:02 | 41.33354 | 1.02764 | 35910 ft | 494 kts | 94° |
| 2026-05-06 18:02 | 41.33162 | 1.11908 | 35916 ft | 494 kts | 94° |
| 2026-05-06 18:03 | 41.32971 | 1.21064 | 35902 ft | 495 kts | 94° |
| 2026-05-06 18:03 | 41.32780 | 1.30251 | 35910 ft | 495 kts | 94° |
| 2026-05-06 18:04 | 41.32584 | 1.39362 | 35924 ft | 496 kts | 94° |
| 2026-05-06 18:04 | 41.32367 | 1.48556 | 35933 ft | 496 kts | 95° |
| 2026-05-06 18:05 | 41.32138 | 1.57744 | 35924 ft | 496 kts | 95° |
| 2026-05-06 18:05 | 41.31905 | 1.66877 | 35925 ft | 496 kts | 95° |
| 2026-05-06 18:06 | 41.31673 | 1.76079 | 35938 ft | 497 kts | 95° |
| 2026-05-06 18:06 | 41.31438 | 1.85221 | 35946 ft | 497 kts | 95° |
| 2026-05-06 18:07 | 41.31190 | 1.94442 | 35937 ft | 497 kts | 95° |
| 2026-05-06 18:07 | 41.30925 | 2.03638 | 35939 ft | 497 kts | 95° |
| 2026-05-06 18:08 | 41.31135 | 2.12802 | 35941 ft | 501 kts | 81° |
| 2026-05-06 18:08 | 41.32692 | 2.21849 | 35972 ft | 502 kts | 77° |
| 2026-05-06 18:09 | 41.34300 | 2.30908 | 35958 ft | 501 kts | 78° |
| 2026-05-06 18:09 | 41.35884 | 2.39897 | 35953 ft | 502 kts | 78° |
| 2026-05-06 18:10 | 41.37481 | 2.48962 | 35953 ft | 502 kts | 78° |
| 2026-05-06 18:10 | 41.39061 | 2.58029 | 35953 ft | 502 kts | 78° |
| 2026-05-06 18:11 | 41.40619 | 2.67053 | 35951 ft | 502 kts | 78° |
| 2026-05-06 18:11 | 41.42190 | 2.76128 | 35935 ft | 502 kts | 78° |
| 2026-05-06 18:12 | 41.43759 | 2.85216 | 35944 ft | 503 kts | 78° |
| 2026-05-06 18:12 | 41.45317 | 2.94311 | 35948 ft | 503 kts | 78° |
| 2026-05-06 18:13 | 41.46850 | 3.03356 | 35951 ft | 503 kts | 78° |
| 2026-05-06 18:13 | 41.48391 | 3.12473 | 35940 ft | 504 kts | 78° |
| 2026-05-06 18:14 | 41.49935 | 3.21601 | 35940 ft | 504 kts | 78° |
| 2026-05-06 18:14 | 41.51477 | 3.30750 | 35944 ft | 505 kts | 78° |
| 2026-05-06 18:15 | 41.52990 | 3.39842 | 35983 ft | 504 kts | 79° |
| 2026-05-06 18:15 | 41.54503 | 3.49011 | 35979 ft | 504 kts | 79° |
| 2026-05-06 18:16 | 41.56010 | 3.58158 | 35981 ft | 504 kts | 79° |
| 2026-05-06 18:16 | 41.57510 | 3.67275 | 35980 ft | 504 kts | 79° |
| 2026-05-06 18:17 | 41.59006 | 3.76442 | 35975 ft | 504 kts | 79° |
| 2026-05-06 18:17 | 41.60486 | 3.85595 | 35956 ft | 503 kts | 79° |
| 2026-05-06 18:18 | 41.61958 | 3.94684 | 35967 ft | 503 kts | 79° |
| 2026-05-06 18:18 | 41.63429 | 4.03834 | 35971 ft | 503 kts | 79° |
| 2026-05-06 18:19 | 41.64891 | 4.12982 | 35975 ft | 503 kts | 79° |
| 2026-05-06 18:19 | 41.66347 | 4.22097 | 35954 ft | 503 kts | 80° |
| 2026-05-06 18:20 | 41.67801 | 4.31271 | 35965 ft | 503 kts | 80° |
| 2026-05-06 18:20 | 41.69242 | 4.40441 | 36004 ft | 503 kts | 80° |
| 2026-05-06 18:21 | 41.70672 | 4.49593 | 35994 ft | 502 kts | 80° |
| 2026-05-06 18:21 | 41.72821 | 4.58443 | 35966 ft | 503 kts | 61° |
| 2026-05-06 18:22 | 41.74733 | 4.62356 | 35961 ft | 502 kts | 49° |
| 2026-05-06 18:22 | 41.77138 | 4.65719 | 35957 ft | 498 kts | 37° |
| 2026-05-06 18:22 | 41.79922 | 4.68428 | 35953 ft | 492 kts | 25° |
| 2026-05-06 18:22 | 41.82938 | 4.70390 | 35950 ft | 485 kts | 14° |
| 2026-05-06 18:23 | 41.89370 | 4.73001 | 35967 ft | 482 kts | 11° |
| 2026-05-06 18:23 | 41.95832 | 4.75564 | 35959 ft | 483 kts | 11° |
| 2026-05-06 18:24 | 42.02253 | 4.78133 | 35962 ft | 484 kts | 11° |
| 2026-05-06 18:24 | 42.08730 | 4.80718 | 35964 ft | 484 kts | 11° |
| 2026-05-06 18:25 | 42.15199 | 4.83300 | 35989 ft | 484 kts | 11° |
| 2026-05-06 18:25 | 42.21633 | 4.85877 | 35982 ft | 484 kts | 11° |
| 2026-05-06 18:26 | 42.28096 | 4.88467 | 35974 ft | 484 kts | 11° |
| 2026-05-06 18:26 | 42.34557 | 4.91070 | 35985 ft | 484 kts | 11° |
| 2026-05-06 18:27 | 42.41019 | 4.93674 | 35983 ft | 483 kts | 11° |
| 2026-05-06 18:27 | 42.47431 | 4.96257 | 35947 ft | 483 kts | 11° |
| 2026-05-06 18:28 | 42.53897 | 4.98873 | 35976 ft | 484 kts | 11° |
| 2026-05-06 18:28 | 42.60354 | 5.01479 | 35970 ft | 484 kts | 11° |
| 2026-05-06 18:29 | 42.66789 | 5.04026 | 35966 ft | 483 kts | 11° |
| 2026-05-06 18:29 | 42.73270 | 5.06578 | 35965 ft | 483 kts | 11° |
| 2026-05-06 18:30 | 42.79651 | 5.09572 | 35958 ft | 490 kts | 23° |
| 2026-05-06 18:30 | 42.85202 | 5.14943 | 35956 ft | 497 kts | 43° |
| 2026-05-06 18:31 | 42.89627 | 5.22262 | 35945 ft | 499 kts | 51° |
| 2026-05-06 18:31 | 42.93855 | 5.29728 | 35974 ft | 499 kts | 51° |
| 2026-05-06 18:32 | 42.98106 | 5.37239 | 35938 ft | 500 kts | 51° |
| 2026-05-06 18:32 | 43.02366 | 5.44787 | 35938 ft | 500 kts | 51° |
| 2026-05-06 18:33 | 43.06586 | 5.52297 | 35937 ft | 501 kts | 51° |
| 2026-05-06 18:33 | 43.10820 | 5.59877 | 35964 ft | 501 kts | 52° |
| 2026-05-06 18:34 | 43.14930 | 5.67583 | 35957 ft | 501 kts | 54° |
| 2026-05-06 18:34 | 43.18962 | 5.75397 | 35926 ft | 501 kts | 54° |
| 2026-05-06 18:35 | 43.22423 | 5.83598 | 35926 ft | 500 kts | 69° |
| 2026-05-06 18:35 | 43.24241 | 5.92747 | 35922 ft | 496 kts | 82° |
| 2026-05-06 18:36 | 43.25535 | 6.02066 | 35917 ft | 497 kts | 82° |
| 2026-05-06 18:36 | 43.26831 | 6.11409 | 35916 ft | 497 kts | 82° |
| 2026-05-06 18:37 | 43.27904 | 6.19161 | 35922 ft | 498 kts | 82° |
| 2026-05-06 18:37 | 43.29403 | 6.30021 | 35919 ft | 498 kts | 82° |
| 2026-05-06 18:38 | 43.30674 | 6.39366 | 35925 ft | 498 kts | 82° |
| 2026-05-06 18:38 | 43.31930 | 6.48733 | 35894 ft | 497 kts | 83° |
| 2026-05-06 18:39 | 43.33182 | 6.58032 | 35886 ft | 498 kts | 83° |
| 2026-05-06 18:40 | 43.34856 | 6.70562 | 35887 ft | 498 kts | 83° |
| 2026-05-06 18:40 | 43.36080 | 6.79871 | 35881 ft | 498 kts | 83° |
| 2026-05-06 18:41 | 43.37911 | 6.89085 | 35849 ft | 502 kts | 68° |
| 2026-05-06 18:41 | 43.41530 | 6.97319 | 35852 ft | 504 kts | 53° |
| 2026-05-06 18:42 | 43.45626 | 7.05088 | 35882 ft | 504 kts | 54° |
| 2026-05-06 18:42 | 43.49714 | 7.12949 | 35883 ft | 504 kts | 54° |
| 2026-05-06 18:43 | 43.53802 | 7.20843 | 35869 ft | 504 kts | 54° |
| 2026-05-06 18:43 | 43.57856 | 7.28670 | 35871 ft | 504 kts | 54° |
| 2026-05-06 18:44 | 43.61936 | 7.36549 | 35887 ft | 504 kts | 54° |
| 2026-05-06 18:44 | 43.66015 | 7.44426 | 35882 ft | 504 kts | 54° |
| 2026-05-06 18:45 | 43.70093 | 7.52338 | 35867 ft | 504 kts | 55° |
| 2026-05-06 18:45 | 43.74140 | 7.60255 | 35830 ft | 503 kts | 55° |
| 2026-05-06 18:46 | 43.78160 | 7.68124 | 35861 ft | 503 kts | 55° |
| 2026-05-06 18:46 | 43.82207 | 7.76057 | 35867 ft | 503 kts | 55° |
| 2026-05-06 18:46 | 43.84226 | 7.80007 | 35641 ft | 501 kts | 55° |
| 2026-05-06 18:47 | 43.86243 | 7.83948 | 35068 ft | 500 kts | 55° |
| 2026-05-06 18:47 | 43.88254 | 7.87879 | 34838 ft | 500 kts | 55° |
| 2026-05-06 18:47 | 43.90265 | 7.91822 | 34843 ft | 502 kts | 55° |
| 2026-05-06 18:48 | 43.94281 | 7.99713 | 34836 ft | 505 kts | 55° |
| 2026-05-06 18:48 | 43.98350 | 8.07727 | 34839 ft | 508 kts | 56° |
| 2026-05-06 18:49 | 44.02412 | 8.15772 | 34837 ft | 509 kts | 56° |
| 2026-05-06 18:49 | 44.06483 | 8.23838 | 34838 ft | 509 kts | 54° |
| 2026-05-06 18:50 | 44.10802 | 8.31652 | 34841 ft | 509 kts | 51° |
| 2026-05-06 18:50 | 44.15274 | 8.39246 | 34844 ft | 509 kts | 51° |
| 2026-05-06 18:51 | 44.19739 | 8.46960 | 34856 ft | 510 kts | 52° |
| 2026-05-06 18:51 | 44.24086 | 8.54711 | 34861 ft | 510 kts | 52° |
| 2026-05-06 18:52 | 44.28436 | 8.62540 | 34865 ft | 510 kts | 52° |
| 2026-05-06 18:52 | 44.32788 | 8.70342 | 34894 ft | 508 kts | 52° |
| 2026-05-06 18:53 | 44.37151 | 8.78134 | 34894 ft | 507 kts | 52° |
| 2026-05-06 18:53 | 44.41490 | 8.85918 | 34893 ft | 507 kts | 53° |
| 2026-05-06 18:54 | 44.45791 | 8.93666 | 34893 ft | 507 kts | 53° |
| 2026-05-06 18:54 | 44.50123 | 9.01494 | 34894 ft | 507 kts | 53° |
| 2026-05-06 18:55 | 44.54452 | 9.09322 | 34850 ft | 507 kts | 53° |
| 2026-05-06 18:55 | 44.58733 | 9.17104 | 34897 ft | 506 kts | 53° |
| 2026-05-06 18:56 | 44.63032 | 9.24944 | 34925 ft | 506 kts | 53° |
| 2026-05-06 18:56 | 44.67327 | 9.32775 | 34906 ft | 506 kts | 53° |
| 2026-05-06 18:57 | 44.71625 | 9.40634 | 34890 ft | 507 kts | 53° |
| 2026-05-06 18:57 | 44.75898 | 9.48487 | 34874 ft | 507 kts | 53° |
| 2026-05-06 18:57 | 44.78037 | 9.52423 | 35008 ft | 506 kts | 54° |
| 2026-05-06 18:58 | 44.80172 | 9.56353 | 35269 ft | 505 kts | 54° |
| 2026-05-06 18:58 | 44.82307 | 9.60290 | 35517 ft | 505 kts | 53° |
| 2026-05-06 18:58 | 44.84454 | 9.64251 | 35758 ft | 504 kts | 53° |
| 2026-05-06 18:59 | 44.88692 | 9.72088 | 35867 ft | 505 kts | 53° |
| 2026-05-06 18:59 | 44.92947 | 9.79990 | 35865 ft | 505 kts | 53° |
| 2026-05-06 19:00 | 44.97200 | 9.87907 | 35867 ft | 505 kts | 54° |
| 2026-05-06 19:00 | 45.01442 | 9.95824 | 35867 ft | 505 kts | 54° |
| 2026-05-06 19:01 | 45.05682 | 10.03753 | 35850 ft | 505 kts | 54° |
| 2026-05-06 19:01 | 45.09879 | 10.11633 | 35853 ft | 505 kts | 54° |
| 2026-05-06 19:02 | 45.14114 | 10.19601 | 35875 ft | 505 kts | 54° |
| 2026-05-06 19:02 | 45.18340 | 10.27588 | 35863 ft | 505 kts | 54° |
| 2026-05-06 19:03 | 45.22529 | 10.35528 | 35887 ft | 505 kts | 54° |
| 2026-05-06 19:03 | 45.26740 | 10.43518 | 35893 ft | 505 kts | 54° |
| 2026-05-06 19:04 | 45.30955 | 10.51538 | 35890 ft | 505 kts | 54° |
| 2026-05-06 19:04 | 45.35140 | 10.59528 | 35888 ft | 506 kts | 54° |
| 2026-05-06 19:05 | 45.39353 | 10.67580 | 35888 ft | 506 kts | 54° |
| 2026-05-06 19:05 | 45.43524 | 10.75586 | 35891 ft | 506 kts | 54° |
| 2026-05-06 19:06 | 45.47715 | 10.83654 | 35910 ft | 506 kts | 54° |
| 2026-05-06 19:06 | 45.51904 | 10.91744 | 35910 ft | 506 kts | 54° |
| 2026-05-06 19:07 | 45.56077 | 10.99825 | 35873 ft | 505 kts | 55° |
| 2026-05-06 19:07 | 45.60241 | 11.07910 | 35904 ft | 504 kts | 55° |
| 2026-05-06 19:08 | 45.64363 | 11.15938 | 35942 ft | 504 kts | 55° |
| 2026-05-06 19:08 | 45.68505 | 11.24028 | 35945 ft | 502 kts | 55° |
| 2026-05-06 19:09 | 45.72637 | 11.32109 | 35955 ft | 502 kts | 55° |
| 2026-05-06 19:09 | 45.76751 | 11.40184 | 35957 ft | 501 kts | 55° |
| 2026-05-06 19:10 | 45.80823 | 11.48199 | 35962 ft | 501 kts | 55° |
| 2026-05-06 19:10 | 45.84919 | 11.56303 | 35975 ft | 501 kts | 55° |
| 2026-05-06 19:11 | 45.89008 | 11.64395 | 35967 ft | 500 kts | 55° |
| 2026-05-06 19:11 | 45.93073 | 11.72456 | 35962 ft | 500 kts | 56° |
| 2026-05-06 19:12 | 45.97146 | 11.80560 | 35964 ft | 500 kts | 55° |
| 2026-05-06 19:12 | 46.01205 | 11.88685 | 35968 ft | 498 kts | 56° |
| 2026-05-06 19:13 | 46.05228 | 11.96756 | 35940 ft | 498 kts | 55° |
| 2026-05-06 19:13 | 46.09279 | 12.04875 | 35918 ft | 498 kts | 56° |
| 2026-05-06 19:14 | 46.13316 | 12.13001 | 35924 ft | 498 kts | 56° |
| 2026-05-06 19:14 | 46.17342 | 12.21141 | 35931 ft | 498 kts | 56° |
| 2026-05-06 19:15 | 46.21363 | 12.29285 | 35932 ft | 498 kts | 56° |
| 2026-05-06 19:15 | 46.25353 | 12.37407 | 35937 ft | 497 kts | 56° |
| 2026-05-06 19:16 | 46.29339 | 12.45553 | 35946 ft | 496 kts | 56° |
| 2026-05-06 19:16 | 46.33349 | 12.53741 | 35925 ft | 497 kts | 56° |
| 2026-05-06 19:17 | 46.37346 | 12.61917 | 35949 ft | 497 kts | 56° |
| 2026-05-06 19:17 | 46.41292 | 12.70043 | 35957 ft | 497 kts | 56° |
| 2026-05-06 19:18 | 46.45273 | 12.78253 | 35961 ft | 496 kts | 56° |
| 2026-05-06 19:18 | 46.49244 | 12.86449 | 35966 ft | 495 kts | 56° |
| 2026-05-06 19:19 | 46.53204 | 12.94655 | 35968 ft | 495 kts | 56° |
| 2026-05-06 19:19 | 46.57121 | 13.02817 | 35930 ft | 495 kts | 56° |
| 2026-05-06 19:20 | 46.61056 | 13.11045 | 35939 ft | 494 kts | 56° |
| 2026-05-06 19:20 | 46.64977 | 13.19257 | 35943 ft | 494 kts | 56° |
| 2026-05-06 19:21 | 46.68775 | 13.27510 | 35948 ft | 492 kts | 63° |
| 2026-05-06 19:21 | 46.71943 | 13.36339 | 35942 ft | 491 kts | 65° |
| 2026-05-06 19:22 | 46.75061 | 13.45155 | 35935 ft | 490 kts | 64° |
| 2026-05-06 19:22 | 46.77666 | 13.52518 | 35925 ft | 490 kts | 64° |
| 2026-05-06 19:23 | 46.80766 | 13.61388 | 35929 ft | 489 kts | 69° |
| 2026-05-06 19:23 | 46.83100 | 13.70683 | 35927 ft | 486 kts | 72° |
| 2026-05-06 19:24 | 46.85370 | 13.79998 | 35928 ft | 486 kts | 73° |
| 2026-05-06 19:24 | 46.87607 | 13.89237 | 35915 ft | 485 kts | 73° |
| 2026-05-06 19:25 | 46.89864 | 13.98608 | 35913 ft | 485 kts | 73° |
| 2026-05-06 19:25 | 46.92082 | 14.07865 | 35890 ft | 484 kts | 73° |
| 2026-05-06 19:25 | 46.93196 | 14.12514 | 35549 ft | 482 kts | 73° |
| 2026-05-06 19:26 | 46.94304 | 14.17148 | 35048 ft | 481 kts | 73° |
| 2026-05-06 19:26 | 46.95408 | 14.21774 | 34846 ft | 483 kts | 73° |
| 2026-05-06 19:26 | 46.96519 | 14.26439 | 34893 ft | 485 kts | 73° |
| 2026-05-06 19:27 | 46.98727 | 14.35754 | 34887 ft | 487 kts | 73° |
| 2026-05-06 19:27 | 46.99832 | 14.40437 | 34500 ft | 486 kts | 73° |
| 2026-05-06 19:27 | 47.00940 | 14.45134 | 33761 ft | 488 kts | 73° |
| 2026-05-06 19:27 | 47.02046 | 14.49822 | 33184 ft | 487 kts | 73° |
| 2026-05-06 19:28 | 47.03155 | 14.54536 | 32643 ft | 486 kts | 73° |
| 2026-05-06 19:28 | 47.04251 | 14.59218 | 32133 ft | 483 kts | 73° |
| 2026-05-06 19:28 | 47.05334 | 14.63864 | 31654 ft | 479 kts | 73° |
| 2026-05-06 19:28 | 47.06410 | 14.68476 | 31159 ft | 476 kts | 73° |
| 2026-05-06 19:29 | 47.07459 | 14.72992 | 30711 ft | 472 kts | 73° |
| 2026-05-06 19:29 | 47.08512 | 14.77540 | 30249 ft | 468 kts | 73° |
| 2026-05-06 19:29 | 47.09555 | 14.82047 | 29742 ft | 463 kts | 73° |
| 2026-05-06 19:29 | 47.10592 | 14.86524 | 29202 ft | 459 kts | 73° |
| 2026-05-06 19:30 | 47.11613 | 14.90945 | 28682 ft | 455 kts | 73° |
| 2026-05-06 19:30 | 47.12611 | 14.95282 | 28169 ft | 450 kts | 73° |
| 2026-05-06 19:30 | 47.13610 | 14.99629 | 27639 ft | 446 kts | 73° |
| 2026-05-06 19:30 | 47.14604 | 15.03949 | 27140 ft | 443 kts | 73° |
| 2026-05-06 19:31 | 47.15586 | 15.08227 | 26644 ft | 439 kts | 73° |
| 2026-05-06 19:31 | 47.16541 | 15.12403 | 26177 ft | 434 kts | 73° |
| 2026-05-06 19:31 | 47.18445 | 15.20755 | 25231 ft | 426 kts | 73° |
| 2026-05-06 19:32 | 47.19380 | 15.24871 | 24780 ft | 422 kts | 73° |
| 2026-05-06 19:32 | 47.20306 | 15.28959 | 24320 ft | 418 kts | 73° |
| 2026-05-06 19:32 | 47.21219 | 15.32997 | 23882 ft | 414 kts | 74° |
| 2026-05-06 19:32 | 47.22123 | 15.37003 | 23441 ft | 411 kts | 74° |
| 2026-05-06 19:33 | 47.23018 | 15.40976 | 22922 ft | 407 kts | 74° |
| 2026-05-06 19:33 | 47.23902 | 15.44915 | 22420 ft | 404 kts | 74° |
| 2026-05-06 19:33 | 47.24780 | 15.48835 | 21890 ft | 401 kts | 74° |
| 2026-05-06 19:33 | 47.25641 | 15.52679 | 21397 ft | 399 kts | 74° |
| 2026-05-06 19:34 | 47.26507 | 15.56545 | 20910 ft | 396 kts | 74° |
| 2026-05-06 19:34 | 47.27370 | 15.60390 | 20434 ft | 393 kts | 74° |
| 2026-05-06 19:34 | 47.28223 | 15.64198 | 20135 ft | 391 kts | 74° |
| 2026-05-06 19:34 | 47.29070 | 15.67994 | 19886 ft | 390 kts | 74° |
| 2026-05-06 19:35 | 47.29914 | 15.71794 | 19643 ft | 389 kts | 74° |
| 2026-05-06 19:35 | 47.30741 | 15.75538 | 19401 ft | 388 kts | 74° |
| 2026-05-06 19:35 | 47.31583 | 15.79364 | 19155 ft | 387 kts | 74° |
| 2026-05-06 19:35 | 47.32403 | 15.83085 | 18918 ft | 386 kts | 74° |
| 2026-05-06 19:36 | 47.33232 | 15.86847 | 18673 ft | 384 kts | 73° |
| 2026-05-06 19:36 | 47.34057 | 15.90592 | 18441 ft | 383 kts | 74° |
| 2026-05-06 19:36 | 47.34876 | 15.94321 | 18210 ft | 382 kts | 73° |
| 2026-05-06 19:36 | 47.35856 | 15.97957 | 17929 ft | 380 kts | 63° |
| 2026-05-06 19:37 | 47.37339 | 16.01182 | 17808 ft | 379 kts | 49° |
| 2026-05-06 19:37 | 47.39251 | 16.03852 | 17832 ft | 379 kts | 40° |
| 2026-05-06 19:37 | 47.41232 | 16.06392 | 17393 ft | 376 kts | 41° |
| 2026-05-06 19:37 | 47.43178 | 16.08914 | 16937 ft | 375 kts | 41° |
| 2026-05-06 19:38 | 47.45134 | 16.11458 | 16514 ft | 373 kts | 41° |
| 2026-05-06 19:38 | 47.47081 | 16.13991 | 16141 ft | 372 kts | 41° |
| 2026-05-06 19:38 | 47.49023 | 16.16516 | 15790 ft | 371 kts | 41° |
| 2026-05-06 19:38 | 47.50961 | 16.19034 | 15431 ft | 370 kts | 41° |
| 2026-05-06 19:39 | 47.52868 | 16.21512 | 15087 ft | 369 kts | 41° |
| 2026-05-06 19:39 | 47.54794 | 16.24011 | 14749 ft | 366 kts | 41° |
| 2026-05-06 19:39 | 47.56711 | 16.26501 | 14413 ft | 366 kts | 42° |
| 2026-05-06 19:39 | 47.58614 | 16.28978 | 14065 ft | 362 kts | 42° |
| 2026-05-06 19:40 | 47.60464 | 16.31389 | 13734 ft | 346 kts | 42° |
| 2026-05-06 19:40 | 47.62257 | 16.33727 | 13415 ft | 340 kts | 42° |
| 2026-05-06 19:40 | 47.64024 | 16.36035 | 13144 ft | 337 kts | 42° |
| 2026-05-06 19:40 | 47.65765 | 16.38310 | 12846 ft | 336 kts | 42° |
| 2026-05-06 19:41 | 47.67514 | 16.40596 | 12561 ft | 334 kts | 41° |
| 2026-05-06 19:41 | 47.69253 | 16.42873 | 12276 ft | 333 kts | 42° |
| 2026-05-06 19:41 | 47.70992 | 16.45156 | 11995 ft | 332 kts | 41° |
| 2026-05-06 19:41 | 47.72717 | 16.47416 | 11712 ft | 330 kts | 41° |
| 2026-05-06 19:42 | 47.74442 | 16.49670 | 11434 ft | 329 kts | 41° |
| 2026-05-06 19:42 | 47.76158 | 16.51908 | 11159 ft | 328 kts | 41° |
| 2026-05-06 19:42 | 47.77873 | 16.54151 | 10907 ft | 327 kts | 41° |
| 2026-05-06 19:42 | 47.79577 | 16.56387 | 10663 ft | 326 kts | 41° |
| 2026-05-06 19:43 | 47.81273 | 16.58623 | 10429 ft | 325 kts | 41° |
| 2026-05-06 19:43 | 47.82940 | 16.60831 | 10191 ft | 324 kts | 41° |
| 2026-05-06 19:43 | 47.84626 | 16.63068 | 10026 ft | 324 kts | 41° |
| 2026-05-06 19:43 | 47.86276 | 16.65252 | 10008 ft | 305 kts | 41° |
| 2026-05-06 19:44 | 47.87819 | 16.67294 | 10019 ft | 290 kts | 41° |
| 2026-05-06 19:44 | 47.89314 | 16.69274 | 10008 ft | 287 kts | 41° |
| 2026-05-06 19:44 | 47.90783 | 16.71225 | 10011 ft | 286 kts | 41° |
| 2026-05-06 19:44 | 47.92269 | 16.73198 | 10013 ft | 286 kts | 41° |
| 2026-05-06 19:45 | 47.93754 | 16.75171 | 10020 ft | 286 kts | 41° |
| 2026-05-06 19:45 | 47.95253 | 16.77106 | 10006 ft | 285 kts | 36° |
| 2026-05-06 19:45 | 47.96935 | 16.78670 | 10007 ft | 283 kts | 24° |
| 2026-05-06 19:45 | 47.98772 | 16.79730 | 10009 ft | 282 kts | 12° |
| 2026-05-06 19:46 | 48.00697 | 16.80266 | 10017 ft | 279 kts | 0° |
| 2026-05-06 19:46 | 48.02620 | 16.80274 | 10001 ft | 274 kts | 349° |
| 2026-05-06 19:46 | 48.04458 | 16.79794 | 9709 ft | 268 kts | 339° |
| 2026-05-06 19:46 | 48.06190 | 16.78843 | 9326 ft | 262 kts | 328° |
| 2026-05-06 19:47 | 48.07807 | 16.77602 | 8912 ft | 261 kts | 327° |
| 2026-05-06 19:47 | 48.09418 | 16.76356 | 8516 ft | 260 kts | 327° |
| 2026-05-06 19:47 | 48.11021 | 16.75116 | 8125 ft | 259 kts | 327° |
| 2026-05-06 19:47 | 48.12624 | 16.73881 | 7745 ft | 258 kts | 327° |
| 2026-05-06 19:48 | 48.14221 | 16.72649 | 7384 ft | 257 kts | 326° |
| 2026-05-06 19:48 | 48.15795 | 16.71434 | 7033 ft | 256 kts | 326° |
| 2026-05-06 19:48 | 48.17380 | 16.70210 | 6680 ft | 255 kts | 326° |
| 2026-05-06 19:48 | 48.18956 | 16.68994 | 6362 ft | 254 kts | 326° |
| 2026-05-06 19:49 | 48.20525 | 16.67783 | 6053 ft | 251 kts | 326° |
| 2026-05-06 19:49 | 48.22101 | 16.66632 | 5999 ft | 255 kts | 331° |
| 2026-05-06 19:49 | 48.23802 | 16.65780 | 6003 ft | 259 kts | 339° |
| 2026-05-06 19:49 | 48.25521 | 16.65066 | 6003 ft | 260 kts | 338° |
| 2026-05-06 19:50 | 48.27269 | 16.64335 | 6002 ft | 260 kts | 338° |
| 2026-05-06 19:50 | 48.29013 | 16.63603 | 6000 ft | 260 kts | 338° |
| 2026-05-06 19:50 | 48.30738 | 16.62876 | 5995 ft | 251 kts | 338° |
| 2026-05-06 19:50 | 48.32380 | 16.62193 | 5997 ft | 239 kts | 339° |
| 2026-05-06 19:51 | 48.33976 | 16.61523 | 6000 ft | 237 kts | 338° |
| 2026-05-06 19:51 | 48.35549 | 16.60854 | 5997 ft | 237 kts | 338° |
| 2026-05-06 19:51 | 48.37137 | 16.60182 | 5996 ft | 237 kts | 338° |
| 2026-05-06 19:51 | 48.38724 | 16.59511 | 5995 ft | 237 kts | 338° |
| 2026-05-06 19:52 | 48.40314 | 16.58838 | 5995 ft | 237 kts | 338° |
| 2026-05-06 19:52 | 48.41896 | 16.58168 | 5998 ft | 232 kts | 340° |
| 2026-05-06 19:52 | 48.43420 | 16.57526 | 5987 ft | 225 kts | 340° |
| 2026-05-06 19:52 | 48.44922 | 16.56890 | 5985 ft | 223 kts | 339° |
| 2026-05-06 19:53 | 48.46426 | 16.56282 | 5985 ft | 224 kts | 345° |
| 2026-05-06 19:53 | 48.47976 | 16.56479 | 5993 ft | 232 kts | 14° |
| 2026-05-06 19:53 | 48.49494 | 16.57350 | 5988 ft | 234 kts | 20° |
| 2026-05-06 19:53 | 48.50988 | 16.58320 | 5983 ft | 233 kts | 20° |
| 2026-05-06 19:54 | 48.52481 | 16.59310 | 5983 ft | 234 kts | 21° |
| 2026-05-06 19:54 | 48.53985 | 16.60305 | 5981 ft | 235 kts | 17° |
| 2026-05-06 19:54 | 48.55576 | 16.60695 | 5844 ft | 232 kts | 354° |
| 2026-05-06 19:54 | 48.57160 | 16.60381 | 5503 ft | 231 kts | 346° |
| 2026-05-06 19:55 | 48.58737 | 16.59946 | 5205 ft | 229 kts | 343° |
| 2026-05-06 19:55 | 48.60093 | 16.58882 | 5000 ft | 215 kts | 313° |
| 2026-05-06 19:55 | 48.61125 | 16.57263 | 4978 ft | 215 kts | 306° |
| 2026-05-06 19:55 | 48.61936 | 16.55426 | 4979 ft | 206 kts | 281° |
| 2026-05-06 19:56 | 48.61997 | 16.53329 | 4983 ft | 200 kts | 259° |
| 2026-05-06 19:56 | 48.61755 | 16.51236 | 4983 ft | 202 kts | 256° |
| 2026-05-06 19:56 | 48.61215 | 16.49304 | 4980 ft | 200 kts | 227° |
| 2026-05-06 19:56 | 48.60186 | 16.47962 | 4992 ft | 197 kts | 217° |
| 2026-05-06 19:57 | 48.59059 | 16.46755 | 4985 ft | 201 kts | 216° |
| 2026-05-06 19:57 | 48.57875 | 16.45617 | 4980 ft | 203 kts | 205° |
| 2026-05-06 19:57 | 48.56487 | 16.45232 | 4979 ft | 203 kts | 188° |
| 2026-05-06 19:57 | 48.55059 | 16.45136 | 4976 ft | 208 kts | 186° |
| 2026-05-06 19:58 | 48.53599 | 16.45076 | 4982 ft | 211 kts | 186° |
| 2026-05-06 19:58 | 48.52130 | 16.45028 | 4980 ft | 211 kts | 185° |
| 2026-05-06 19:58 | 48.50661 | 16.44984 | 4981 ft | 210 kts | 186° |
| 2026-05-06 19:58 | 48.49215 | 16.44942 | 4981 ft | 210 kts | 185° |
| 2026-05-06 19:59 | 48.47745 | 16.44893 | 4986 ft | 211 kts | 185° |
| 2026-05-06 19:59 | 48.46273 | 16.44830 | 4988 ft | 212 kts | 185° |
| 2026-05-06 19:59 | 48.44798 | 16.44760 | 4987 ft | 211 kts | 186° |
| 2026-05-06 19:59 | 48.43348 | 16.44761 | 4981 ft | 201 kts | 180° |
| 2026-05-06 20:00 | 48.42004 | 16.45102 | 5007 ft | 194 kts | 173° |
| 2026-05-06 20:00 | 48.40695 | 16.45603 | 4996 ft | 194 kts | 170° |
| 2026-05-06 20:00 | 48.39414 | 16.46139 | 4994 ft | 193 kts | 169° |
| 2026-05-06 20:00 | 48.38122 | 16.46689 | 4995 ft | 193 kts | 169° |
| 2026-05-06 20:01 | 48.36828 | 16.47242 | 4997 ft | 194 kts | 169° |
| 2026-05-06 20:01 | 48.35527 | 16.47797 | 4995 ft | 194 kts | 169° |
| 2026-05-06 20:01 | 48.34226 | 16.48354 | 4962 ft | 194 kts | 169° |
| 2026-05-06 20:01 | 48.32933 | 16.48906 | 4783 ft | 193 kts | 170° |
| 2026-05-06 20:02 | 48.31640 | 16.49458 | 4561 ft | 192 kts | 170° |
| 2026-05-06 20:02 | 48.30356 | 16.50006 | 4303 ft | 191 kts | 170° |
| 2026-05-06 20:02 | 48.29101 | 16.50542 | 4056 ft | 188 kts | 170° |
| 2026-05-06 20:02 | 48.27851 | 16.51075 | 3792 ft | 183 kts | 171° |
| 2026-05-06 20:03 | 48.26669 | 16.51581 | 3555 ft | 172 kts | 171° |
| 2026-05-06 20:03 | 48.25534 | 16.52064 | 3341 ft | 167 kts | 172° |
| 2026-05-06 20:03 | 48.24430 | 16.52533 | 3117 ft | 162 kts | 172° |
| 2026-05-06 20:03 | 48.23403 | 16.52973 | 2915 ft | 147 kts | 172° |
| 2026-05-06 20:04 | 48.22438 | 16.53382 | 2728 ft | 141 kts | 172° |
| 2026-05-06 20:04 | 48.21499 | 16.53780 | 2542 ft | 139 kts | 172° |
| 2026-05-06 20:04 | 48.20582 | 16.54168 | 2367 ft | 137 kts | 173° |
| 2026-05-06 20:04 | 48.19671 | 16.54554 | 2185 ft | 135 kts | 171° |
| 2026-05-06 20:05 | 48.18777 | 16.54934 | 2002 ft | 131 kts | 170° |
| 2026-05-06 20:05 | 48.17899 | 16.55306 | 1833 ft | 132 kts | 170° |
| 2026-05-06 20:05 | 48.17035 | 16.55673 | 1668 ft | 129 kts | 169° |
| 2026-05-06 20:05 | 48.16169 | 16.56040 | 1499 ft | 128 kts | 169° |
| 2026-05-06 20:06 | 48.15300 | 16.56406 | 1316 ft | 130 kts | 162° |
| 2026-05-06 20:06 | 48.14422 | 16.56766 | 1170 ft | 131 kts | 164° |
| 2026-05-06 20:06 | 48.13546 | 16.57142 | 1002 ft | 130 kts | 162° |
| 2026-05-06 20:06 | 48.12972 | 16.57384 | 883 ft | 127 kts | 161° |
| 2026-05-06 20:07 | 48.12108 | 16.57755 | 687 ft | 130 kts | 160° |
| 2026-05-06 20:07 | 48.11259 | 16.58122 | 624 ft | 118 kts | 161° |
| 2026-05-06 20:07 | 48.10614 | 16.58395 | 621 ft | 71 kts | 164° |
| 2026-05-06 20:07 | 48.10261 | 16.58536 | 620 ft | 43 kts | 166° |
| 2026-05-06 20:08 | 48.10006 | 16.58611 | 620 ft | 32 kts | 177° |
| 2026-05-06 20:08 | 48.09851 | 16.58595 | 623 ft | 15 kts | 187° |
| 2026-05-06 20:08 | 48.09759 | 16.58572 | 612 ft | 12 kts | 190° |
| 2026-05-06 20:08 | 48.09676 | 16.58547 | 609 ft | 12 kts | 202° |
| 2026-05-06 20:09 | 48.09648 | 16.58442 | 616 ft | 11 kts | 284° |
| 2026-05-06 20:09 | 48.09700 | 16.58367 | 609 ft | 10 kts | 337° |
| 2026-05-06 20:09 | 48.09766 | 16.58335 | 617 ft | 10 kts | 344° |
| 2026-05-06 20:09 | 48.09832 | 16.58308 | 621 ft | 10 kts | 344° |
| 2026-05-06 20:10 | 48.09899 | 16.58279 | 612 ft | 10 kts | 344° |
| 2026-05-06 20:10 | 48.09963 | 16.58252 | 620 ft | 9 kts | 344° |
| 2026-05-06 20:10 | 48.10023 | 16.58228 | 618 ft | 9 kts | 345° |
| 2026-05-06 20:10 | 48.10095 | 16.58198 | 617 ft | 14 kts | 345° |
| 2026-05-06 20:11 | 48.10216 | 16.58150 | 616 ft | 20 kts | 344° |
| 2026-05-06 20:11 | 48.10330 | 16.58098 | 617 ft | 15 kts | 343° |
| 2026-05-06 20:11 | 48.10428 | 16.58054 | 618 ft | 14 kts | 343° |
| 2026-05-06 20:11 | 48.10519 | 16.58014 | 611 ft | 13 kts | 345° |
| 2026-05-06 20:12 | 48.10607 | 16.57977 | 614 ft | 12 kts | 344° |
| 2026-05-06 20:12 | 48.10697 | 16.57940 | 620 ft | 16 kts | 344° |
| 2026-05-06 20:12 | 48.10797 | 16.57897 | 621 ft | 14 kts | 343° |
| 2026-05-06 20:12 | 48.10890 | 16.57858 | 617 ft | 13 kts | 344° |
| 2026-05-06 20:13 | 48.10977 | 16.57821 | 617 ft | 13 kts | 344° |
| 2026-05-06 20:13 | 48.11071 | 16.57781 | 610 ft | 19 kts | 344° |
| 2026-05-06 20:13 | 48.11204 | 16.57724 | 619 ft | 20 kts | 344° |
| 2026-05-06 20:13 | 48.11332 | 16.57669 | 619 ft | 21 kts | 344° |
| 2026-05-06 20:14 | 48.11467 | 16.57615 | 620 ft | 19 kts | 345° |
| 2026-05-06 20:14 | 48.11582 | 16.57567 | 622 ft | 16 kts | 344° |
| 2026-05-06 20:14 | 48.11683 | 16.57523 | 620 ft | 15 kts | 343° |
| 2026-05-06 20:14 | 48.11777 | 16.57482 | 620 ft | 12 kts | 343° |
| 2026-05-06 20:15 | 48.11802 | 16.57444 | 614 ft | 0 kts | 291° |
| 2026-05-06 20:15 | 48.11803 | 16.57439 | 613 ft | 3 kts | 287° |
| 2026-05-06 20:15 | 48.11813 | 16.57354 | 616 ft | 10 kts | 287° |
| 2026-05-06 20:16 | 48.11841 | 16.57257 | 614 ft | 12 kts | 296° |
| 2026-05-06 20:16 | 48.11894 | 16.57158 | 613 ft | 12 kts | 305° |
| 2026-05-06 20:16 | 48.11929 | 16.57054 | 616 ft | 11 kts | 296° |
| 2026-05-06 20:16 | 48.11961 | 16.56957 | 612 ft | 10 kts | 296° |
| 2026-05-06 20:17 | 48.11986 | 16.56879 | 616 ft | 6 kts | 300° |
| 2026-05-06 20:17 | 48.12016 | 16.56865 | 610 ft | 3 kts | 7° |
| 2026-05-06 20:17 | 48.12042 | 16.56877 | 610 ft | 3 kts | 21° |
| 2026-05-06 20:17 | 48.12044 | 16.56878 | 610 ft | 0 kts | 22° |
| 2026-05-06 20:20 | 48.12043 | 16.56878 | 610 ft | 0 kts | 22° |